sensor_id;sensor_type;location;lat;lon;timestamp;P1;durP1;ratioP1;P2;durP2;ratioP2
62574;SDS011;70119;45.638;11.714;2023-09-19T00:01:32;7.53;;;4.18;;
62574;SDS011;70119;45.638;11.714;2023-09-19T00:03:58;6.40;;;4.00;;
62574;SDS011;70119;45.638;11.714;2023-09-19T00:06:27;6.88;;;3.97;;
62574;SDS011;70119;45.638;11.714;2023-09-19T00:08:56;6.72;;;4.30;;
62574;SDS011;70119;45.638;11.714;2023-09-19T00:11:26;5.78;;;4.20;;
62574;SDS011;70119;45.638;11.714;2023-09-19T00:13:52;7.05;;;4.28;;
62574;SDS011;70119;45.638;11.714;2023-09-19T00:16:18;6.32;;;4.10;;
62574;SDS011;70119;45.638;11.714;2023-09-19T00:18:44;6.70;;;4.45;;
62574;SDS011;70119;45.638;11.714;2023-09-19T00:21:10;7.03;;;4.50;;
62574;SDS011;70119;45.638;11.714;2023-09-19T00:23:37;5.25;;;3.83;;
62574;SDS011;70119;45.638;11.714;2023-09-19T00:26:06;6.20;;;4.07;;
62574;SDS011;70119;45.638;11.714;2023-09-19T00:28:31;7.32;;;4.40;;
62574;SDS011;70119;45.638;11.714;2023-09-19T00:30:58;7.38;;;4.13;;
62574;SDS011;70119;45.638;11.714;2023-09-19T00:33:27;6.80;;;3.75;;
62574;SDS011;70119;45.638;11.714;2023-09-19T00:35:54;6.72;;;3.90;;
62574;SDS011;70119;45.638;11.714;2023-09-19T00:38:23;5.25;;;4.00;;
62574;SDS011;70119;45.638;11.714;2023-09-19T00:40:52;5.97;;;3.95;;
62574;SDS011;70119;45.638;11.714;2023-09-19T00:43:25;5.75;;;3.88;;
62574;SDS011;70119;45.638;11.714;2023-09-19T00:45:52;6.05;;;3.58;;
62574;SDS011;70119;45.638;11.714;2023-09-19T00:48:19;5.82;;;3.67;;
62574;SDS011;70119;45.638;11.714;2023-09-19T00:50:47;5.43;;;4.25;;
62574;SDS011;70119;45.638;11.714;2023-09-19T00:53:15;6.32;;;4.35;;
62574;SDS011;70119;45.638;11.714;2023-09-19T00:55:45;6.22;;;4.25;;
62574;SDS011;70119;45.638;11.714;2023-09-19T00:58:13;7.43;;;4.80;;
62574;SDS011;70119;45.638;11.714;2023-09-19T01:00:40;8.25;;;4.72;;
62574;SDS011;70119;45.638;11.714;2023-09-19T01:03:06;7.85;;;4.68;;
62574;SDS011;70119;45.638;11.714;2023-09-19T01:05:36;7.75;;;4.32;;
62574;SDS011;70119;45.638;11.714;2023-09-19T01:08:10;7.55;;;4.75;;
62574;SDS011;70119;45.638;11.714;2023-09-19T01:10:44;9.43;;;4.50;;
62574;SDS011;70119;45.638;11.714;2023-09-19T01:13:29;6.93;;;4.53;;
62574;SDS011;70119;45.638;11.714;2023-09-19T01:21:54;6.60;;;4.18;;
62574;SDS011;70119;45.638;11.714;2023-09-19T01:29:44;5.53;;;4.10;;
62574;SDS011;70119;45.638;11.714;2023-09-19T01:32:15;5.40;;;3.75;;
62574;SDS011;70119;45.638;11.714;2023-09-19T01:34:47;6.22;;;3.80;;
62574;SDS011;70119;45.638;11.714;2023-09-19T01:37:18;6.45;;;3.97;;
62574;SDS011;70119;45.638;11.714;2023-09-19T01:39:49;7.30;;;4.10;;
62574;SDS011;70119;45.638;11.714;2023-09-19T01:42:40;5.30;;;3.95;;
62574;SDS011;70119;45.638;11.714;2023-09-19T01:45:13;5.18;;;3.70;;
62574;SDS011;70119;45.638;11.714;2023-09-19T01:48:03;7.95;;;4.10;;
62574;SDS011;70119;45.638;11.714;2023-09-19T01:50:46;7.55;;;4.10;;
62574;SDS011;70119;45.638;11.714;2023-09-19T01:56:32;8.50;;;4.38;;
62574;SDS011;70119;45.638;11.714;2023-09-19T01:59:09;7.72;;;4.55;;
62574;SDS011;70119;45.638;11.714;2023-09-19T02:01:38;7.55;;;3.80;;
62574;SDS011;70119;45.638;11.714;2023-09-19T02:04:05;6.10;;;4.10;;
62574;SDS011;70119;45.638;11.714;2023-09-19T02:06:32;7.53;;;3.88;;
62574;SDS011;70119;45.638;11.714;2023-09-19T02:08:59;7.22;;;4.10;;
62574;SDS011;70119;45.638;11.714;2023-09-19T02:11:25;6.82;;;3.97;;
62574;SDS011;70119;45.638;11.714;2023-09-19T02:13:51;7.35;;;3.80;;
62574;SDS011;70119;45.638;11.714;2023-09-19T02:16:19;6.95;;;3.70;;
62574;SDS011;70119;45.638;11.714;2023-09-19T02:18:47;7.10;;;4.10;;
62574;SDS011;70119;45.638;11.714;2023-09-19T02:21:14;6.82;;;4.30;;
62574;SDS011;70119;45.638;11.714;2023-09-19T02:23:42;7.05;;;4.20;;
62574;SDS011;70119;45.638;11.714;2023-09-19T02:26:08;6.22;;;3.92;;
62574;SDS011;70119;45.638;11.714;2023-09-19T02:28:34;6.45;;;3.88;;
62574;SDS011;70119;45.638;11.714;2023-09-19T02:31:01;6.78;;;4.10;;
62574;SDS011;70119;45.638;11.714;2023-09-19T02:33:27;6.68;;;4.25;;
62574;SDS011;70119;45.638;11.714;2023-09-19T02:35:57;6.72;;;4.10;;
62574;SDS011;70119;45.638;11.714;2023-09-19T02:38:24;7.50;;;4.18;;
62574;SDS011;70119;45.638;11.714;2023-09-19T02:40:51;6.50;;;3.70;;
62574;SDS011;70119;45.638;11.714;2023-09-19T02:43:17;6.20;;;4.10;;
62574;SDS011;70119;45.638;11.714;2023-09-19T02:45:45;6.13;;;3.80;;
62574;SDS011;70119;45.638;11.714;2023-09-19T02:48:12;5.80;;;3.83;;
62574;SDS011;70119;45.638;11.714;2023-09-19T02:50:37;5.78;;;3.95;;
62574;SDS011;70119;45.638;11.714;2023-09-19T02:53:05;7.38;;;4.20;;
62574;SDS011;70119;45.638;11.714;2023-09-19T02:55:32;8.57;;;4.60;;
62574;SDS011;70119;45.638;11.714;2023-09-19T02:57:59;7.70;;;4.57;;
62574;SDS011;70119;45.638;11.714;2023-09-19T03:00:26;6.57;;;4.00;;
62574;SDS011;70119;45.638;11.714;2023-09-19T03:02:53;8.15;;;4.18;;
62574;SDS011;70119;45.638;11.714;2023-09-19T03:05:20;5.97;;;4.00;;
62574;SDS011;70119;45.638;11.714;2023-09-19T03:07:48;6.15;;;4.30;;
62574;SDS011;70119;45.638;11.714;2023-09-19T03:10:16;6.10;;;3.88;;
62574;SDS011;70119;45.638;11.714;2023-09-19T03:12:42;6.47;;;4.30;;
62574;SDS011;70119;45.638;11.714;2023-09-19T03:15:08;6.00;;;4.00;;
62574;SDS011;70119;45.638;11.714;2023-09-19T03:17:35;5.90;;;3.90;;
62574;SDS011;70119;45.638;11.714;2023-09-19T03:20:01;6.60;;;4.20;;
62574;SDS011;70119;45.638;11.714;2023-09-19T03:22:29;6.78;;;4.20;;
62574;SDS011;70119;45.638;11.714;2023-09-19T03:24:55;6.32;;;4.00;;
62574;SDS011;70119;45.638;11.714;2023-09-19T03:27:20;5.43;;;3.88;;
62574;SDS011;70119;45.638;11.714;2023-09-19T03:29:47;7.68;;;4.32;;
62574;SDS011;70119;45.638;11.714;2023-09-19T03:32:12;8.18;;;4.55;;
62574;SDS011;70119;45.638;11.714;2023-09-19T03:34:39;8.38;;;4.25;;
62574;SDS011;70119;45.638;11.714;2023-09-19T03:37:08;6.53;;;4.18;;
62574;SDS011;70119;45.638;11.714;2023-09-19T03:39:34;5.72;;;3.88;;
62574;SDS011;70119;45.638;11.714;2023-09-19T03:42:01;5.75;;;4.05;;
62574;SDS011;70119;45.638;11.714;2023-09-19T03:44:29;6.78;;;3.97;;
62574;SDS011;70119;45.638;11.714;2023-09-19T03:46:55;6.25;;;3.85;;
62574;SDS011;70119;45.638;11.714;2023-09-19T03:49:22;7.38;;;4.10;;
62574;SDS011;70119;45.638;11.714;2023-09-19T03:51:47;5.97;;;3.92;;
62574;SDS011;70119;45.638;11.714;2023-09-19T03:54:13;6.25;;;3.97;;
62574;SDS011;70119;45.638;11.714;2023-09-19T03:56:39;6.97;;;4.28;;
62574;SDS011;70119;45.638;11.714;2023-09-19T03:59:05;6.60;;;4.15;;
62574;SDS011;70119;45.638;11.714;2023-09-19T04:01:33;6.13;;;4.03;;
62574;SDS011;70119;45.638;11.714;2023-09-19T04:03:59;5.57;;;3.70;;
62574;SDS011;70119;45.638;11.714;2023-09-19T04:06:33;6.07;;;4.00;;
62574;SDS011;70119;45.638;11.714;2023-09-19T04:09:00;5.75;;;3.88;;
62574;SDS011;70119;45.638;11.714;2023-09-19T04:11:28;5.30;;;3.50;;
62574;SDS011;70119;45.638;11.714;2023-09-19T04:13:56;7.07;;;3.60;;
62574;SDS011;70119;45.638;11.714;2023-09-19T04:16:22;6.18;;;3.67;;
62574;SDS011;70119;45.638;11.714;2023-09-19T04:18:48;4.65;;;3.65;;
62574;SDS011;70119;45.638;11.714;2023-09-19T04:21:14;6.55;;;3.67;;
62574;SDS011;70119;45.638;11.714;2023-09-19T04:23:40;7.13;;;3.63;;
62574;SDS011;70119;45.638;11.714;2023-09-19T04:26:05;6.53;;;3.60;;
62574;SDS011;70119;45.638;11.714;2023-09-19T04:28:31;5.32;;;3.40;;
62574;SDS011;70119;45.638;11.714;2023-09-19T04:30:59;5.03;;;3.45;;
62574;SDS011;70119;45.638;11.714;2023-09-19T04:33:26;4.15;;;2.90;;
62574;SDS011;70119;45.638;11.714;2023-09-19T04:35:53;6.70;;;3.45;;
62574;SDS011;70119;45.638;11.714;2023-09-19T04:38:19;4.15;;;2.90;;
62574;SDS011;70119;45.638;11.714;2023-09-19T04:40:46;4.35;;;3.05;;
62574;SDS011;70119;45.638;11.714;2023-09-19T04:43:12;4.13;;;2.95;;
62574;SDS011;70119;45.638;11.714;2023-09-19T04:45:38;4.25;;;2.83;;
62574;SDS011;70119;45.638;11.714;2023-09-19T04:48:05;4.43;;;2.88;;
62574;SDS011;70119;45.638;11.714;2023-09-19T04:50:34;4.07;;;2.88;;
62574;SDS011;70119;45.638;11.714;2023-09-19T04:53:01;3.65;;;2.80;;
62574;SDS011;70119;45.638;11.714;2023-09-19T04:55:28;5.10;;;2.65;;
62574;SDS011;70119;45.638;11.714;2023-09-19T04:57:55;3.00;;;2.58;;
62574;SDS011;70119;45.638;11.714;2023-09-19T05:00:21;3.55;;;2.60;;
62574;SDS011;70119;45.638;11.714;2023-09-19T05:02:54;3.40;;;2.42;;
62574;SDS011;70119;45.638;11.714;2023-09-19T05:05:24;4.45;;;2.70;;
62574;SDS011;70119;45.638;11.714;2023-09-19T05:07:51;2.75;;;2.47;;
62574;SDS011;70119;45.638;11.714;2023-09-19T05:10:21;3.00;;;2.30;;
62574;SDS011;70119;45.638;11.714;2023-09-19T05:12:47;3.30;;;2.60;;
62574;SDS011;70119;45.638;11.714;2023-09-19T05:15:16;3.03;;;2.22;;
62574;SDS011;70119;45.638;11.714;2023-09-19T05:17:47;2.60;;;2.33;;
62574;SDS011;70119;45.638;11.714;2023-09-19T05:20:15;3.15;;;2.25;;
62574;SDS011;70119;45.638;11.714;2023-09-19T05:22:41;3.75;;;2.20;;
62574;SDS011;70119;45.638;11.714;2023-09-19T05:25:08;3.65;;;2.60;;
62574;SDS011;70119;45.638;11.714;2023-09-19T05:27:35;3.70;;;2.15;;
62574;SDS011;70119;45.638;11.714;2023-09-19T05:30:01;3.15;;;2.40;;
62574;SDS011;70119;45.638;11.714;2023-09-19T05:32:27;3.63;;;2.20;;
62574;SDS011;70119;45.638;11.714;2023-09-19T05:34:53;4.68;;;2.35;;
62574;SDS011;70119;45.638;11.714;2023-09-19T05:37:21;3.75;;;2.47;;
62574;SDS011;70119;45.638;11.714;2023-09-19T05:39:49;4.25;;;2.60;;
62574;SDS011;70119;45.638;11.714;2023-09-19T05:42:17;3.95;;;2.70;;
62574;SDS011;70119;45.638;11.714;2023-09-19T05:44:44;5.00;;;2.50;;
62574;SDS011;70119;45.638;11.714;2023-09-19T05:47:10;3.38;;;2.63;;
62574;SDS011;70119;45.638;11.714;2023-09-19T05:49:38;6.40;;;2.92;;
62574;SDS011;70119;45.638;11.714;2023-09-19T05:52:07;4.22;;;2.97;;
62574;SDS011;70119;45.638;11.714;2023-09-19T05:54:33;7.47;;;3.30;;
62574;SDS011;70119;45.638;11.714;2023-09-19T05:57:00;8.18;;;3.28;;
62574;SDS011;70119;45.638;11.714;2023-09-19T05:59:29;7.57;;;2.90;;
62574;SDS011;70119;45.638;11.714;2023-09-19T06:01:55;6.22;;;2.70;;
62574;SDS011;70119;45.638;11.714;2023-09-19T06:04:20;5.22;;;2.80;;
62574;SDS011;70119;45.638;11.714;2023-09-19T06:06:47;4.78;;;3.00;;
62574;SDS011;70119;45.638;11.714;2023-09-19T06:09:14;4.72;;;3.10;;
62574;SDS011;70119;45.638;11.714;2023-09-19T06:11:45;4.53;;;3.00;;
62574;SDS011;70119;45.638;11.714;2023-09-19T06:14:13;5.45;;;3.15;;
62574;SDS011;70119;45.638;11.714;2023-09-19T06:16:43;5.22;;;3.10;;
62574;SDS011;70119;45.638;11.714;2023-09-19T06:19:09;5.10;;;3.17;;
62574;SDS011;70119;45.638;11.714;2023-09-19T06:21:35;5.82;;;3.00;;
62574;SDS011;70119;45.638;11.714;2023-09-19T06:24:03;6.07;;;3.28;;
62574;SDS011;70119;45.638;11.714;2023-09-19T06:26:30;3.40;;;2.58;;
62574;SDS011;70119;45.638;11.714;2023-09-19T06:28:58;5.50;;;2.92;;
62574;SDS011;70119;45.638;11.714;2023-09-19T06:31:33;3.85;;;2.70;;
62574;SDS011;70119;45.638;11.714;2023-09-19T06:34:00;5.90;;;3.25;;
62574;SDS011;70119;45.638;11.714;2023-09-19T06:36:30;4.80;;;3.10;;
62574;SDS011;70119;45.638;11.714;2023-09-19T06:38:56;4.78;;;3.00;;
62574;SDS011;70119;45.638;11.714;2023-09-19T06:41:21;5.95;;;3.05;;
62574;SDS011;70119;45.638;11.714;2023-09-19T06:43:50;3.97;;;2.70;;
62574;SDS011;70119;45.638;11.714;2023-09-19T06:46:20;6.32;;;3.22;;
62574;SDS011;70119;45.638;11.714;2023-09-19T06:48:51;5.28;;;2.90;;
62574;SDS011;70119;45.638;11.714;2023-09-19T06:51:18;6.05;;;3.20;;
62574;SDS011;70119;45.638;11.714;2023-09-19T06:53:44;5.43;;;3.17;;
62574;SDS011;70119;45.638;11.714;2023-09-19T06:56:10;7.50;;;3.88;;
62574;SDS011;70119;45.638;11.714;2023-09-19T06:58:35;7.28;;;3.80;;
62574;SDS011;70119;45.638;11.714;2023-09-19T07:01:01;7.22;;;4.05;;
62574;SDS011;70119;45.638;11.714;2023-09-19T07:03:28;6.72;;;3.65;;
62574;SDS011;70119;45.638;11.714;2023-09-19T07:05:54;6.63;;;3.72;;
62574;SDS011;70119;45.638;11.714;2023-09-19T07:08:21;17.30;;;4.10;;
62574;SDS011;70119;45.638;11.714;2023-09-19T07:10:47;6.18;;;3.35;;
62574;SDS011;70119;45.638;11.714;2023-09-19T07:13:17;6.10;;;3.63;;
62574;SDS011;70119;45.638;11.714;2023-09-19T07:15:43;6.25;;;3.30;;
62574;SDS011;70119;45.638;11.714;2023-09-19T07:18:13;5.40;;;3.50;;
62574;SDS011;70119;45.638;11.714;2023-09-19T07:20:41;5.65;;;3.45;;
62574;SDS011;70119;45.638;11.714;2023-09-19T07:23:11;5.53;;;3.50;;
62574;SDS011;70119;45.638;11.714;2023-09-19T07:25:40;5.50;;;3.35;;
62574;SDS011;70119;45.638;11.714;2023-09-19T07:28:06;6.32;;;3.55;;
62574;SDS011;70119;45.638;11.714;2023-09-19T07:30:32;7.30;;;3.90;;
62574;SDS011;70119;45.638;11.714;2023-09-19T07:33:02;8.65;;;3.80;;
62574;SDS011;70119;45.638;11.714;2023-09-19T07:35:29;5.47;;;3.90;;
62574;SDS011;70119;45.638;11.714;2023-09-19T07:37:57;6.15;;;3.72;;
62574;SDS011;70119;45.638;11.714;2023-09-19T07:40:26;5.40;;;3.30;;
62574;SDS011;70119;45.638;11.714;2023-09-19T07:42:54;6.72;;;3.70;;
62574;SDS011;70119;45.638;11.714;2023-09-19T07:45:20;8.10;;;4.22;;
62574;SDS011;70119;45.638;11.714;2023-09-19T07:47:47;9.45;;;4.50;;
62574;SDS011;70119;45.638;11.714;2023-09-19T07:50:15;7.53;;;3.95;;
62574;SDS011;70119;45.638;11.714;2023-09-19T07:52:43;7.90;;;4.20;;
62574;SDS011;70119;45.638;11.714;2023-09-19T07:55:10;8.88;;;4.40;;
62574;SDS011;70119;45.638;11.714;2023-09-19T07:57:41;6.75;;;3.97;;
62574;SDS011;70119;45.638;11.714;2023-09-19T08:00:09;5.63;;;3.72;;
62574;SDS011;70119;45.638;11.714;2023-09-19T08:02:36;6.65;;;3.78;;
62574;SDS011;70119;45.638;11.714;2023-09-19T08:05:06;5.95;;;3.80;;
62574;SDS011;70119;45.638;11.714;2023-09-19T08:07:36;6.13;;;3.80;;
62574;SDS011;70119;45.638;11.714;2023-09-19T08:10:06;7.80;;;3.70;;
62574;SDS011;70119;45.638;11.714;2023-09-19T08:12:36;7.20;;;3.63;;
62574;SDS011;70119;45.638;11.714;2023-09-19T08:15:02;5.50;;;3.88;;
62574;SDS011;70119;45.638;11.714;2023-09-19T08:17:31;6.65;;;3.92;;
62574;SDS011;70119;45.638;11.714;2023-09-19T08:19:59;6.90;;;4.10;;
62574;SDS011;70119;45.638;11.714;2023-09-19T08:22:26;8.55;;;4.47;;
62574;SDS011;70119;45.638;11.714;2023-09-19T08:24:52;8.52;;;4.22;;
62574;SDS011;70119;45.638;11.714;2023-09-19T08:27:18;6.30;;;4.03;;
62574;SDS011;70119;45.638;11.714;2023-09-19T08:29:44;7.55;;;4.22;;
62574;SDS011;70119;45.638;11.714;2023-09-19T08:32:12;6.85;;;4.07;;
62574;SDS011;70119;45.638;11.714;2023-09-19T08:34:37;6.78;;;3.90;;
62574;SDS011;70119;45.638;11.714;2023-09-19T08:37:03;6.82;;;3.78;;
62574;SDS011;70119;45.638;11.714;2023-09-19T08:39:29;6.63;;;4.40;;
62574;SDS011;70119;45.638;11.714;2023-09-19T08:41:58;6.00;;;4.13;;
62574;SDS011;70119;45.638;11.714;2023-09-19T08:44:25;6.38;;;3.85;;
62574;SDS011;70119;45.638;11.714;2023-09-19T08:46:54;7.97;;;4.30;;
62574;SDS011;70119;45.638;11.714;2023-09-19T08:52:14;7.75;;;4.50;;
62574;SDS011;70119;45.638;11.714;2023-09-19T08:54:45;9.48;;;4.95;;
62574;SDS011;70119;45.638;11.714;2023-09-19T08:57:17;7.57;;;4.95;;
62574;SDS011;70119;45.638;11.714;2023-09-19T08:59:47;9.32;;;5.00;;
62574;SDS011;70119;45.638;11.714;2023-09-19T09:02:15;7.75;;;4.75;;
62574;SDS011;70119;45.638;11.714;2023-09-19T09:04:43;7.43;;;4.18;;
62574;SDS011;70119;45.638;11.714;2023-09-19T09:07:11;6.75;;;4.70;;
62574;SDS011;70119;45.638;11.714;2023-09-19T09:09:44;7.88;;;4.80;;
62574;SDS011;70119;45.638;11.714;2023-09-19T09:12:14;7.82;;;4.63;;
62574;SDS011;70119;45.638;11.714;2023-09-19T09:14:44;7.82;;;4.57;;
62574;SDS011;70119;45.638;11.714;2023-09-19T09:17:11;7.15;;;4.28;;
62574;SDS011;70119;45.638;11.714;2023-09-19T09:19:37;6.53;;;4.28;;
62574;SDS011;70119;45.638;11.714;2023-09-19T09:22:07;6.82;;;4.20;;
62574;SDS011;70119;45.638;11.714;2023-09-19T09:24:36;6.55;;;4.40;;
62574;SDS011;70119;45.638;11.714;2023-09-19T09:27:15;7.85;;;4.32;;
62574;SDS011;70119;45.638;11.714;2023-09-19T09:29:45;7.70;;;4.50;;
62574;SDS011;70119;45.638;11.714;2023-09-19T09:34:48;10.25;;;4.95;;
62574;SDS011;70119;45.638;11.714;2023-09-19T09:37:18;10.25;;;4.57;;
62574;SDS011;70119;45.638;11.714;2023-09-19T09:39:49;8.02;;;5.50;;
62574;SDS011;70119;45.638;11.714;2023-09-19T09:42:35;9.02;;;5.35;;
62574;SDS011;70119;45.638;11.714;2023-09-19T09:45:13;8.07;;;4.68;;
62574;SDS011;70119;45.638;11.714;2023-09-19T09:47:46;7.50;;;4.82;;
62574;SDS011;70119;45.638;11.714;2023-09-19T09:50:26;8.93;;;5.00;;
62574;SDS011;70119;45.638;11.714;2023-09-19T09:58:33;8.70;;;4.38;;
62574;SDS011;70119;45.638;11.714;2023-09-19T10:01:00;7.10;;;4.60;;
62574;SDS011;70119;45.638;11.714;2023-09-19T10:03:45;6.88;;;4.25;;
62574;SDS011;70119;45.638;11.714;2023-09-19T10:06:17;9.23;;;4.70;;
62574;SDS011;70119;45.638;11.714;2023-09-19T10:11:48;9.82;;;5.00;;
62574;SDS011;70119;45.638;11.714;2023-09-19T10:14:25;10.45;;;4.22;;
62574;SDS011;70119;45.638;11.714;2023-09-19T10:16:56;7.97;;;4.30;;
62574;SDS011;70119;45.638;11.714;2023-09-19T10:19:30;8.57;;;4.80;;
62574;SDS011;70119;45.638;11.714;2023-09-19T10:22:02;8.07;;;4.70;;
62574;SDS011;70119;45.638;11.714;2023-09-19T10:24:30;8.60;;;4.55;;
62574;SDS011;70119;45.638;11.714;2023-09-19T10:26:59;8.90;;;4.57;;
62574;SDS011;70119;45.638;11.714;2023-09-19T10:29:25;8.43;;;4.45;;
62574;SDS011;70119;45.638;11.714;2023-09-19T10:31:56;9.88;;;4.95;;
62574;SDS011;70119;45.638;11.714;2023-09-19T10:34:24;9.63;;;4.93;;
62574;SDS011;70119;45.638;11.714;2023-09-19T10:36:51;7.13;;;4.40;;
62574;SDS011;70119;45.638;11.714;2023-09-19T10:39:19;6.72;;;4.03;;
62574;SDS011;70119;45.638;11.714;2023-09-19T10:41:51;7.47;;;4.10;;
62574;SDS011;70119;45.638;11.714;2023-09-19T10:44:23;8.18;;;4.20;;
62574;SDS011;70119;45.638;11.714;2023-09-19T10:46:52;6.78;;;3.97;;
62574;SDS011;70119;45.638;11.714;2023-09-19T10:49:22;5.53;;;3.83;;
62574;SDS011;70119;45.638;11.714;2023-09-19T10:51:50;8.40;;;4.38;;
62574;SDS011;70119;45.638;11.714;2023-09-19T10:54:23;7.45;;;4.20;;
62574;SDS011;70119;45.638;11.714;2023-09-19T10:56:53;8.07;;;4.40;;
62574;SDS011;70119;45.638;11.714;2023-09-19T10:59:20;8.70;;;4.28;;
62574;SDS011;70119;45.638;11.714;2023-09-19T11:01:47;6.70;;;4.25;;
62574;SDS011;70119;45.638;11.714;2023-09-19T11:04:21;6.93;;;4.10;;
62574;SDS011;70119;45.638;11.714;2023-09-19T11:07:09;7.60;;;4.07;;
62574;SDS011;70119;45.638;11.714;2023-09-19T11:26:50;6.90;;;4.45;;
62574;SDS011;70119;45.638;11.714;2023-09-19T11:29:26;6.72;;;4.03;;
62574;SDS011;70119;45.638;11.714;2023-09-19T11:31:54;8.70;;;4.20;;
62574;SDS011;70119;45.638;11.714;2023-09-19T11:42:45;6.80;;;4.25;;
62574;SDS011;70119;45.638;11.714;2023-09-19T11:48:13;9.45;;;4.20;;
62574;SDS011;70119;45.638;11.714;2023-09-19T11:50:44;5.95;;;3.70;;
62574;SDS011;70119;45.638;11.714;2023-09-19T11:53:12;7.63;;;3.83;;
62574;SDS011;70119;45.638;11.714;2023-09-19T11:55:39;6.75;;;4.13;;
62574;SDS011;70119;45.638;11.714;2023-09-19T11:58:08;5.68;;;3.88;;
62574;SDS011;70119;45.638;11.714;2023-09-19T12:00:37;6.93;;;3.72;;
62574;SDS011;70119;45.638;11.714;2023-09-19T12:03:09;6.32;;;3.95;;
62574;SDS011;70119;45.638;11.714;2023-09-19T12:05:36;7.47;;;4.07;;
62574;SDS011;70119;45.638;11.714;2023-09-19T12:08:06;5.75;;;3.92;;
62574;SDS011;70119;45.638;11.714;2023-09-19T12:10:46;7.60;;;3.88;;
62574;SDS011;70119;45.638;11.714;2023-09-19T12:13:18;7.30;;;3.95;;
62574;SDS011;70119;45.638;11.714;2023-09-19T12:15:47;5.38;;;3.92;;
62574;SDS011;70119;45.638;11.714;2023-09-19T12:18:29;6.07;;;3.30;;
62574;SDS011;70119;45.638;11.714;2023-09-19T12:20:56;5.75;;;3.60;;
62574;SDS011;70119;45.638;11.714;2023-09-19T12:23:23;6.93;;;3.72;;
62574;SDS011;70119;45.638;11.714;2023-09-19T12:25:51;5.50;;;3.47;;
62574;SDS011;70119;45.638;11.714;2023-09-19T12:28:19;6.32;;;3.78;;
62574;SDS011;70119;45.638;11.714;2023-09-19T12:30:52;5.55;;;3.78;;
62574;SDS011;70119;45.638;11.714;2023-09-19T12:33:23;5.93;;;3.67;;
62574;SDS011;70119;45.638;11.714;2023-09-19T12:35:55;5.72;;;3.47;;
62574;SDS011;70119;45.638;11.714;2023-09-19T12:38:25;6.45;;;3.60;;
62574;SDS011;70119;45.638;11.714;2023-09-19T12:40:54;5.55;;;3.60;;
62574;SDS011;70119;45.638;11.714;2023-09-19T12:43:21;7.13;;;3.78;;
62574;SDS011;70119;45.638;11.714;2023-09-19T12:45:48;4.57;;;3.40;;
62574;SDS011;70119;45.638;11.714;2023-09-19T12:51:03;6.07;;;3.60;;
62574;SDS011;70119;45.638;11.714;2023-09-19T12:56:05;4.82;;;3.55;;
62574;SDS011;70119;45.638;11.714;2023-09-19T12:58:33;5.13;;;3.70;;
62574;SDS011;70119;45.638;11.714;2023-09-19T13:01:00;6.50;;;3.33;;
62574;SDS011;70119;45.638;11.714;2023-09-19T13:03:30;5.28;;;3.50;;
62574;SDS011;70119;45.638;11.714;2023-09-19T13:06:01;5.22;;;3.40;;
62574;SDS011;70119;45.638;11.714;2023-09-19T13:11:01;5.68;;;3.75;;
62574;SDS011;70119;45.638;11.714;2023-09-19T13:13:44;5.45;;;3.33;;
62574;SDS011;70119;45.638;11.714;2023-09-19T13:16:20;5.10;;;3.30;;
62574;SDS011;70119;45.638;11.714;2023-09-19T13:18:51;6.03;;;3.60;;
62574;SDS011;70119;45.638;11.714;2023-09-19T13:21:30;5.40;;;3.45;;
62574;SDS011;70119;45.638;11.714;2023-09-19T13:24:21;5.95;;;3.47;;
62574;SDS011;70119;45.638;11.714;2023-09-19T13:26:48;7.13;;;3.45;;
62574;SDS011;70119;45.638;11.714;2023-09-19T13:29:15;5.47;;;3.40;;
62574;SDS011;70119;45.638;11.714;2023-09-19T13:31:49;6.10;;;3.30;;
62574;SDS011;70119;45.638;11.714;2023-09-19T13:34:19;6.35;;;3.45;;
62574;SDS011;70119;45.638;11.714;2023-09-19T13:36:50;5.53;;;3.20;;
62574;SDS011;70119;45.638;11.714;2023-09-19T13:39:24;5.68;;;3.50;;
62574;SDS011;70119;45.638;11.714;2023-09-19T13:41:50;6.50;;;3.25;;
62574;SDS011;70119;45.638;11.714;2023-09-19T13:44:16;5.22;;;3.10;;
62574;SDS011;70119;45.638;11.714;2023-09-19T13:46:43;4.47;;;3.20;;
62574;SDS011;70119;45.638;11.714;2023-09-19T13:49:11;5.35;;;3.30;;
62574;SDS011;70119;45.638;11.714;2023-09-19T13:51:37;5.43;;;3.08;;
62574;SDS011;70119;45.638;11.714;2023-09-19T13:54:02;4.70;;;3.38;;
62574;SDS011;70119;45.638;11.714;2023-09-19T13:56:28;6.15;;;3.22;;
62574;SDS011;70119;45.638;11.714;2023-09-19T13:58:55;6.25;;;3.38;;
62574;SDS011;70119;45.638;11.714;2023-09-19T14:01:21;5.97;;;3.28;;
62574;SDS011;70119;45.638;11.714;2023-09-19T14:03:46;5.70;;;3.17;;
62574;SDS011;70119;45.638;11.714;2023-09-19T14:06:16;5.05;;;3.13;;
62574;SDS011;70119;45.638;11.714;2023-09-19T14:08:43;4.88;;;3.30;;
62574;SDS011;70119;45.638;11.714;2023-09-19T14:11:13;5.17;;;3.23;;
62574;SDS011;70119;45.638;11.714;2023-09-19T14:13:41;3.88;;;3.10;;
62574;SDS011;70119;45.638;11.714;2023-09-19T14:16:12;4.72;;;3.28;;
62574;SDS011;70119;45.638;11.714;2023-09-19T14:18:38;5.72;;;3.20;;
62574;SDS011;70119;45.638;11.714;2023-09-19T14:21:04;5.93;;;3.50;;
62574;SDS011;70119;45.638;11.714;2023-09-19T14:23:39;4.45;;;3.22;;
62574;SDS011;70119;45.638;11.714;2023-09-19T14:26:07;4.38;;;3.25;;
62574;SDS011;70119;45.638;11.714;2023-09-19T14:28:34;5.30;;;3.30;;
62574;SDS011;70119;45.638;11.714;2023-09-19T14:31:06;5.50;;;3.15;;
62574;SDS011;70119;45.638;11.714;2023-09-19T14:33:33;5.07;;;3.30;;
62574;SDS011;70119;45.638;11.714;2023-09-19T14:36:02;3.80;;;2.90;;
62574;SDS011;70119;45.638;11.714;2023-09-19T14:38:32;5.97;;;2.92;;
62574;SDS011;70119;45.638;11.714;2023-09-19T14:41:02;4.78;;;3.17;;
62574;SDS011;70119;45.638;11.714;2023-09-19T14:43:29;3.78;;;2.90;;
62574;SDS011;70119;45.638;11.714;2023-09-19T14:46:05;5.05;;;3.20;;
62574;SDS011;70119;45.638;11.714;2023-09-19T14:48:35;5.95;;;3.25;;
62574;SDS011;70119;45.638;11.714;2023-09-19T14:51:04;5.13;;;3.20;;
62574;SDS011;70119;45.638;11.714;2023-09-19T14:53:34;8.20;;;3.47;;
62574;SDS011;70119;45.638;11.714;2023-09-19T14:56:02;4.72;;;3.17;;
62574;SDS011;70119;45.638;11.714;2023-09-19T14:58:32;5.25;;;3.00;;
62574;SDS011;70119;45.638;11.714;2023-09-19T15:01:08;4.80;;;3.13;;
62574;SDS011;70119;45.638;11.714;2023-09-19T15:03:35;4.88;;;3.00;;
62574;SDS011;70119;45.638;11.714;2023-09-19T15:06:02;6.15;;;3.17;;
62574;SDS011;70119;45.638;11.714;2023-09-19T15:08:35;4.88;;;2.80;;
62574;SDS011;70119;45.638;11.714;2023-09-19T15:11:05;4.05;;;3.00;;
62574;SDS011;70119;45.638;11.714;2023-09-19T15:13:32;6.63;;;3.45;;
62574;SDS011;70119;45.638;11.714;2023-09-19T15:16:02;4.38;;;2.90;;
62574;SDS011;70119;45.638;11.714;2023-09-19T15:18:29;4.57;;;3.10;;
62574;SDS011;70119;45.638;11.714;2023-09-19T15:21:02;4.17;;;3.00;;
62574;SDS011;70119;45.638;11.714;2023-09-19T15:23:34;4.72;;;2.95;;
62574;SDS011;70119;45.638;11.714;2023-09-19T15:26:02;4.20;;;2.80;;
62574;SDS011;70119;45.638;11.714;2023-09-19T15:28:32;4.90;;;2.88;;
62574;SDS011;70119;45.638;11.714;2023-09-19T15:31:02;5.72;;;3.15;;
62574;SDS011;70119;45.638;11.714;2023-09-19T15:33:30;7.53;;;3.10;;
62574;SDS011;70119;45.638;11.714;2023-09-19T15:36:06;5.22;;;3.20;;
62574;SDS011;70119;45.638;11.714;2023-09-19T15:41:19;4.72;;;2.88;;
62574;SDS011;70119;45.638;11.714;2023-09-19T15:43:46;4.70;;;2.63;;
62574;SDS011;70119;45.638;11.714;2023-09-19T15:46:11;5.60;;;3.20;;
62574;SDS011;70119;45.638;11.714;2023-09-19T15:48:38;7.00;;;3.10;;
62574;SDS011;70119;45.638;11.714;2023-09-19T15:51:04;4.95;;;2.88;;